Hauptseite
METAR-TAF:

METAR-TAF

Flughäfen :

Kosrae, Mikronesien

Flughafen Kosrae

Breite: 05-21N, Länge: 162-57E, Höhe: 3 m

Beobachtung

Neuester Wetterbericht von vor 18 Stunden und 19 Minuten, um 23:50 UTC
Wind 9 kt aus Südost
Temperatur 31°C
Luftfeuchtigkeit 66%
Luftdruck 1010 hPa
Sichtweite: 16.1 km
Aufgelockert bewölkt in der Höhe von 1800 ft
Durchbrochene Bewölkung in der Höhe von 13000 ft
Geschlossene Wolkendecke in der Höhe von 29000 ft

METAR: PTSA 252350Z 13009KT 10SM SCT018 BKN130 OVC290 31/24 A2982 RMK LAST

Zeit: 05:09 (18:09 UTC)

Prognose

Neuester Wetterbericht von vor 18 Stunden und 41 Minuten, um 23:28 UTC
Gültige Prognose vom 26 um 00 UTC bis 26 um 24 UTC
Wind 15 kt aus Ost/Südost
Sichtweite: 10 km
Aufgelockert bewölkt in der Höhe von 1700 ft
Durchbrochene Bewölkung in der Höhe von 13000 ft
Schauer in der Nähe

TAF: PTSA 252328Z 2600/2624 12015KT P6SM VCSH SCT017 BKN130

Wetterbeobachtungen und Prognosen von mehr als 4000 Flughäfen (METAR und TAF Bericht).

Die verfügbaren Stationen werden durch gelbe und rote Markierungen auf der Karte dargestellt.

Führen Sie die Maus auf sie, um den Namen der Station zu sehen.

Darauf klicken, um die Beobachtung von Wetterbeobachtungen und Prognosen zu sehen.

Um die Karte zu ändern : klicken Sie auf den grünen Tasten mit einem schwarzen Kreuz Zum Vergrößern, auf den grünen Button mit einem Gedankenstrich zu verkleinern, oder auf die grünen Pfeile für benachbarte Karten.


METAR-TAF: